createdAt,value
2022-12-04T00:01:23.972Z,2.00
2022-12-04T00:03:55.679Z,1.90
2022-12-04T00:06:23.259Z,1.80
2022-12-04T00:08:50.700Z,1.90
2022-12-04T00:11:23.278Z,1.80
2022-12-04T00:13:50.256Z,1.90
2022-12-04T00:16:23.879Z,1.90
2022-12-04T00:18:51.127Z,1.90
2022-12-04T00:21:19.480Z,1.90
2022-12-04T00:23:47.072Z,1.90
2022-12-04T00:26:19.436Z,2.00
2022-12-04T00:28:46.909Z,2.10
2022-12-04T00:31:17.147Z,2.10
2022-12-04T00:33:44.542Z,2.10
2022-12-04T00:36:13.545Z,2.00
2022-12-04T00:38:40.520Z,2.00
2022-12-04T00:41:16.117Z,2.10
2022-12-04T00:43:42.968Z,2.00
2022-12-04T00:46:10.026Z,1.90
2022-12-04T00:48:37.118Z,1.80
2022-12-04T00:51:10.792Z,1.80
2022-12-04T00:53:38.486Z,1.80
2022-12-04T00:56:07.654Z,1.90
2022-12-04T00:58:34.662Z,1.80
2022-12-04T01:01:04.398Z,1.70
2022-12-04T01:03:31.354Z,1.70
2022-12-04T01:05:58.089Z,1.80
2022-12-04T01:08:25.118Z,1.90
2022-12-04T01:10:52.079Z,1.90
2022-12-04T01:13:19.098Z,1.90
2022-12-04T01:15:47.499Z,1.90
2022-12-04T01:18:15.041Z,1.80
2022-12-04T01:20:48.839Z,1.80
2022-12-04T01:23:16.110Z,1.80
2022-12-04T01:25:51.792Z,1.90
2022-12-04T01:28:18.709Z,1.90
2022-12-04T01:30:45.460Z,1.90
2022-12-04T01:33:12.298Z,2.00
2022-12-04T01:35:39.167Z,2.00
2022-12-04T01:38:05.889Z,2.00
2022-12-04T01:40:32.630Z,2.00
2022-12-04T01:43:00.061Z,2.10
2022-12-04T01:45:47.812Z,2.10
2022-12-04T01:48:17.296Z,2.10
2022-12-04T01:50:44.829Z,2.00
2022-12-04T01:53:12.874Z,2.00
2022-12-04T01:55:40.089Z,2.00
2022-12-04T01:58:08.521Z,2.00
2022-12-04T02:00:35.330Z,2.10
2022-12-04T02:03:02.557Z,2.00
2022-12-04T02:05:29.453Z,1.90
2022-12-04T02:08:00.219Z,1.90
2022-12-04T02:10:41.945Z,2.00
2022-12-04T02:13:29.821Z,2.00
2022-12-04T02:16:10.726Z,2.00
2022-12-04T02:19:12.672Z,2.00
2022-12-04T02:21:43.343Z,2.00
2022-12-04T02:24:10.135Z,2.00
2022-12-04T02:27:01.248Z,2.00
2022-12-04T02:29:50.539Z,2.00
2022-12-04T02:32:20.172Z,2.00
2022-12-04T02:35:34.721Z,2.00
2022-12-04T02:38:17.285Z,1.90
2022-12-04T02:41:21.882Z,1.90
2022-12-04T02:44:07.993Z,1.80
2022-12-04T02:46:38.657Z,1.70
2022-12-04T02:49:12.194Z,1.70
2022-12-04T02:51:41.251Z,1.80
2022-12-04T02:54:20.649Z,1.80
2022-12-04T02:56:50.353Z,1.90
2022-12-04T02:59:24.273Z,1.90
2022-12-04T03:01:56.400Z,1.90
2022-12-04T03:04:30.696Z,1.90
2022-12-04T03:07:06.223Z,2.00
2022-12-04T03:09:47.673Z,2.00
2022-12-04T03:12:38.730Z,2.00
2022-12-04T03:15:16.244Z,1.90
2022-12-04T03:17:50.695Z,1.80
2022-12-04T03:20:19.626Z,1.80
2022-12-04T03:22:54.187Z,1.80
2022-12-04T03:25:26.413Z,1.90
2022-12-04T03:28:03.859Z,1.90
2022-12-04T03:30:43.172Z,2.00
2022-12-04T03:33:19.812Z,2.00
2022-12-04T03:35:52.046Z,1.90
2022-12-04T03:38:30.909Z,2.00
2022-12-04T03:41:04.138Z,2.10
2022-12-04T03:43:47.106Z,2.00
2022-12-04T03:46:26.494Z,2.00
2022-12-04T03:49:22.898Z,2.10
2022-12-04T03:52:02.570Z,2.20
2022-12-04T03:54:38.075Z,2.10
2022-12-04T03:57:13.171Z,2.10
2022-12-04T03:59:55.581Z,2.10
2022-12-04T04:02:25.825Z,2.00
2022-12-04T04:04:57.184Z,2.00
2022-12-04T04:07:35.332Z,2.10
2022-12-04T04:10:13.980Z,2.10
2022-12-04T04:13:07.789Z,2.20
2022-12-04T04:15:55.689Z,2.20
2022-12-04T04:18:41.357Z,2.20
2022-12-04T04:21:26.714Z,2.20
2022-12-04T04:24:12.268Z,2.10
2022-12-04T04:26:44.323Z,2.10
2022-12-04T04:29:11.644Z,2.10
2022-12-04T04:31:44.241Z,2.10
2022-12-04T04:34:28.024Z,2.20
2022-12-04T04:37:01.953Z,2.20
2022-12-04T04:39:42.755Z,2.20
2022-12-04T04:42:12.248Z,2.10
2022-12-04T04:44:47.381Z,2.10
2022-12-04T04:47:26.934Z,2.10
2022-12-04T04:49:55.912Z,2.10
2022-12-04T04:52:23.927Z,2.10
2022-12-04T04:54:50.977Z,2.10
2022-12-04T05:05:02.166Z,2.20
2022-12-04T05:07:28.257Z,2.20
2022-12-04T05:09:55.387Z,2.20
2022-12-04T05:12:22.379Z,2.10
2022-12-04T05:14:49.380Z,2.00
2022-12-04T05:17:16.438Z,2.10
2022-12-04T05:19:57.223Z,2.10
2022-12-04T05:22:28.796Z,2.10
2022-12-04T05:24:55.827Z,2.10
2022-12-04T05:27:23.174Z,2.10
2022-12-04T05:29:54.114Z,2.00
2022-12-04T05:32:23.223Z,2.00
2022-12-04T05:34:54.775Z,1.90
2022-12-04T05:37:22.090Z,2.00
2022-12-04T05:39:48.892Z,2.00
2022-12-04T05:42:15.943Z,2.00
2022-12-04T05:44:42.694Z,2.10
2022-12-04T05:47:09.459Z,2.10
2022-12-04T05:49:36.224Z,2.20
2022-12-04T05:52:05.662Z,2.10
2022-12-04T05:54:32.365Z,2.10
2022-12-04T05:56:59.581Z,2.10
2022-12-04T05:59:26.288Z,2.10
2022-12-04T06:01:53.045Z,2.10
2022-12-04T06:04:19.826Z,1.90
2022-12-04T06:06:46.747Z,2.00
2022-12-04T06:09:13.678Z,2.00
2022-12-04T06:11:41.809Z,2.10
2022-12-04T06:14:12.261Z,1.90
2022-12-04T06:16:42.969Z,1.90
2022-12-04T06:19:13.283Z,2.00
2022-12-04T06:21:41.887Z,2.00
2022-12-04T06:24:12.397Z,1.80
2022-12-04T06:26:51.997Z,1.90
2022-12-04T06:29:25.938Z,1.90
2022-12-04T06:31:52.678Z,2.00
2022-12-04T06:34:19.484Z,2.00
2022-12-04T06:36:46.140Z,2.00
2022-12-04T06:39:16.998Z,2.10
2022-12-04T06:41:45.562Z,1.90
2022-12-04T06:44:12.506Z,1.90
2022-12-04T06:46:45.099Z,2.00
2022-12-04T06:49:13.370Z,1.90
2022-12-04T06:51:40.853Z,2.00
2022-12-04T06:54:08.074Z,2.10
2022-12-04T06:56:34.938Z,2.00
2022-12-04T06:59:03.308Z,1.90
2022-12-04T07:01:32.439Z,1.90
2022-12-04T07:04:00.960Z,1.90
2022-12-04T07:06:36.298Z,2.00
2022-12-04T07:09:05.939Z,2.00
2022-12-04T07:11:33.805Z,2.10
2022-12-04T07:14:00.490Z,2.10
2022-12-04T07:16:28.516Z,2.20
2022-12-04T07:18:59.168Z,2.10
2022-12-04T07:21:28.493Z,2.10
2022-12-04T07:23:58.378Z,2.10
2022-12-04T07:26:26.471Z,2.10
2022-12-04T07:28:54.777Z,2.20
2022-12-04T07:31:23.591Z,2.20
2022-12-04T07:33:50.714Z,2.20
2022-12-04T07:36:19.879Z,2.20
2022-12-04T07:38:47.068Z,2.10
2022-12-04T07:41:14.950Z,2.00
2022-12-04T07:43:41.855Z,2.00
2022-12-04T07:46:12.428Z,2.00
2022-12-04T07:48:39.490Z,2.00
2022-12-04T07:51:08.717Z,2.00
2022-12-04T07:53:36.522Z,2.00
2022-12-04T07:56:05.356Z,2.00
2022-12-04T07:58:33.277Z,2.10
2022-12-04T08:01:18.849Z,2.20
2022-12-04T08:03:49.025Z,2.20
2022-12-04T08:06:19.048Z,2.20
2022-12-04T08:08:47.262Z,2.30
2022-12-04T08:11:17.051Z,2.30
2022-12-04T08:13:44.923Z,2.20
2022-12-04T08:16:12.804Z,2.20
2022-12-04T08:18:40.302Z,2.20
2022-12-04T08:21:13.952Z,2.20
2022-12-04T08:23:42.862Z,2.40
2022-12-04T08:26:10.497Z,2.30
2022-12-04T08:28:38.021Z,2.30
2022-12-04T08:31:29.174Z,2.20
2022-12-04T08:33:58.309Z,2.20
2022-12-04T08:36:25.778Z,2.20
2022-12-04T08:38:53.086Z,2.30
2022-12-04T08:41:23.908Z,2.30
2022-12-04T08:43:53.561Z,2.30
2022-12-04T08:46:21.453Z,2.30
2022-12-04T08:48:48.875Z,2.20
2022-12-04T08:51:18.451Z,2.10
2022-12-04T08:53:45.748Z,2.20
2022-12-04T08:56:13.409Z,2.20
2022-12-04T08:58:40.346Z,2.10
2022-12-04T09:01:12.619Z,1.90
2022-12-04T09:03:39.934Z,1.70
2022-12-04T09:06:08.828Z,1.80
2022-12-04T09:08:36.894Z,2.00
2022-12-04T09:11:05.666Z,2.00
2022-12-04T09:13:32.992Z,2.10
2022-12-04T09:15:59.948Z,2.10
2022-12-04T09:18:26.740Z,2.20
2022-12-04T09:21:01.728Z,2.10
2022-12-04T09:23:29.236Z,2.10
2022-12-04T09:25:55.982Z,2.00
2022-12-04T09:28:22.756Z,2.10
2022-12-04T09:31:06.112Z,2.20
2022-12-04T09:33:33.226Z,2.10
2022-12-04T09:36:01.171Z,2.20
2022-12-04T09:38:29.463Z,2.20
2022-12-04T09:41:10.524Z,2.30
2022-12-04T09:43:52.500Z,2.40
2022-12-04T09:46:26.692Z,2.40
2022-12-04T09:48:56.719Z,2.50
2022-12-04T09:51:26.314Z,2.60
2022-12-04T09:54:17.009Z,2.60
2022-12-04T09:56:51.009Z,2.60
2022-12-04T09:59:23.351Z,2.70
2022-12-04T10:01:58.932Z,2.70
2022-12-04T10:04:25.777Z,2.70
2022-12-04T10:07:14.709Z,2.70
2022-12-04T10:10:14.079Z,2.60
2022-12-04T10:12:40.753Z,2.30
2022-12-04T10:15:35.184Z,2.40
2022-12-04T10:18:12.470Z,2.60
2022-12-04T10:21:08.427Z,2.50
2022-12-04T10:23:54.930Z,2.50
2022-12-04T10:26:26.866Z,2.60
2022-12-04T10:29:20.115Z,2.70
2022-12-04T10:31:49.228Z,2.80
2022-12-04T10:34:25.392Z,2.80
2022-12-04T10:36:55.177Z,2.90
2022-12-04T10:39:26.699Z,2.90
2022-12-04T10:42:10.407Z,2.80
2022-12-04T10:44:37.138Z,2.70
2022-12-04T10:47:06.224Z,2.70
2022-12-04T10:49:35.666Z,2.50
2022-12-04T10:52:02.611Z,2.60
2022-12-04T10:54:36.601Z,2.80
2022-12-04T10:57:08.926Z,2.90
2022-12-04T10:59:39.278Z,3.00
2022-12-04T11:02:22.748Z,2.80
2022-12-04T11:04:58.261Z,2.70
2022-12-04T11:07:30.769Z,2.90
2022-12-04T11:10:19.307Z,2.90
2022-12-04T11:13:01.638Z,3.00
2022-12-04T11:15:29.434Z,2.90
2022-12-04T11:18:06.964Z,3.00
2022-12-04T11:20:33.884Z,3.00
2022-12-04T11:23:00.682Z,3.20
2022-12-04T11:25:33.198Z,3.00
2022-12-04T11:28:02.332Z,3.10
2022-12-04T11:30:37.809Z,3.20
2022-12-04T11:33:08.136Z,3.10
2022-12-04T11:35:34.929Z,3.10
2022-12-04T11:38:14.733Z,3.10
2022-12-04T11:40:53.661Z,3.00
2022-12-04T11:43:21.935Z,3.00
2022-12-04T11:46:04.175Z,3.20
2022-12-04T11:48:32.725Z,3.10
2022-12-04T11:51:14.618Z,2.90
2022-12-04T11:53:50.497Z,2.70
2022-12-04T11:56:27.210Z,2.50
2022-12-04T11:59:08.894Z,2.60
2022-12-04T12:01:56.303Z,2.70
2022-12-04T12:04:36.172Z,2.90
2022-12-04T12:07:30.423Z,2.90
2022-12-04T12:10:21.824Z,2.80
2022-12-04T12:13:11.072Z,2.60
2022-12-04T12:16:12.215Z,2.70
2022-12-04T12:18:50.879Z,2.60
2022-12-04T12:21:27.778Z,2.50
2022-12-04T12:24:29.049Z,2.70
2022-12-04T12:27:13.982Z,3.00
2022-12-04T12:29:59.620Z,3.10
2022-12-04T12:32:48.093Z,3.20
2022-12-04T12:35:45.454Z,3.30
2022-12-04T12:38:17.436Z,3.30
2022-12-04T12:40:48.623Z,3.40
2022-12-04T12:43:27.965Z,3.20
2022-12-04T12:46:00.953Z,3.20
2022-12-04T12:48:52.469Z,3.00
2022-12-04T12:51:37.607Z,2.90
2022-12-04T12:54:27.155Z,3.10
2022-12-04T12:56:57.353Z,3.20
2022-12-04T12:59:27.489Z,3.20
2022-12-04T13:02:06.487Z,3.30
2022-12-04T13:04:43.493Z,3.10
2022-12-04T13:07:29.267Z,3.00
2022-12-04T13:10:11.430Z,2.90
2022-12-04T13:13:08.003Z,2.90
2022-12-04T13:15:53.645Z,3.10
2022-12-04T13:18:27.406Z,3.20
2022-12-04T13:20:59.646Z,3.00
2022-12-04T13:23:39.700Z,2.70
2022-12-04T13:26:10.705Z,2.50
2022-12-04T13:28:55.802Z,2.40
2022-12-04T13:31:49.449Z,2.50
2022-12-04T13:34:24.995Z,2.30
2022-12-04T13:37:15.013Z,2.50
2022-12-04T13:39:47.816Z,2.60
2022-12-04T13:42:41.234Z,2.60
2022-12-04T13:45:11.808Z,2.80
2022-12-04T13:47:38.790Z,3.00
2022-12-04T13:50:12.805Z,3.10
2022-12-04T13:52:41.817Z,3.10
2022-12-04T13:55:24.553Z,3.20
2022-12-04T13:58:00.552Z,3.30
2022-12-04T14:00:35.834Z,3.30
2022-12-04T14:03:33.839Z,3.20
2022-12-04T14:06:05.435Z,3.20
2022-12-04T14:08:43.624Z,3.00
2022-12-04T14:11:18.243Z,3.10
2022-12-04T14:13:49.262Z,3.00
2022-12-04T14:16:26.778Z,3.10
2022-12-04T14:18:57.135Z,3.10
2022-12-04T14:21:24.478Z,3.00
2022-12-04T14:23:53.337Z,2.80
2022-12-04T14:26:49.052Z,2.80
2022-12-04T14:29:38.296Z,3.00
2022-12-04T14:32:22.318Z,3.00
2022-12-04T14:34:49.810Z,3.10
2022-12-04T14:37:37.474Z,3.20
2022-12-04T14:40:09.370Z,3.20
2022-12-04T14:42:40.353Z,3.20
2022-12-04T14:45:17.808Z,3.30
2022-12-04T14:47:59.063Z,3.30
2022-12-04T14:50:34.144Z,3.40
2022-12-04T14:53:23.629Z,3.40
2022-12-04T14:56:16.185Z,3.40
2022-12-04T14:58:43.570Z,3.40
2022-12-04T15:01:29.837Z,3.40
2022-12-04T15:04:01.250Z,3.20
2022-12-04T15:06:31.695Z,3.10
2022-12-04T15:09:19.954Z,2.80
2022-12-04T15:12:09.195Z,3.00
2022-12-04T15:14:54.213Z,3.10
2022-12-04T15:17:21.097Z,3.20
2022-12-04T15:19:49.922Z,3.20
2022-12-04T15:22:27.031Z,3.20
2022-12-04T15:24:55.332Z,3.20
2022-12-04T15:27:32.017Z,3.10
2022-12-04T15:30:01.709Z,3.10
2022-12-04T15:32:30.291Z,3.10
2022-12-04T15:35:08.956Z,3.10
2022-12-04T15:37:36.346Z,3.10
2022-12-04T15:40:08.392Z,3.00
2022-12-04T15:42:35.093Z,2.90
2022-12-04T15:45:07.500Z,2.90
2022-12-04T15:47:54.225Z,2.90
2022-12-04T15:50:30.023Z,2.80
2022-12-04T15:53:05.985Z,2.40
2022-12-04T15:55:52.110Z,2.20
2022-12-04T15:58:24.101Z,2.20
2022-12-04T16:00:56.848Z,2.30
2022-12-04T16:03:32.981Z,2.40
2022-12-04T16:06:25.771Z,2.60
2022-12-04T16:08:54.167Z,2.70
2022-12-04T16:11:21.328Z,2.70
2022-12-04T16:13:50.521Z,2.70
2022-12-04T16:16:20.988Z,2.70
2022-12-04T16:18:47.969Z,2.50
2022-12-04T16:21:18.093Z,2.40
2022-12-04T16:23:45.621Z,2.60
2022-12-04T16:26:17.547Z,2.70
2022-12-04T16:28:45.017Z,2.80
2022-12-04T16:31:13.198Z,2.70
2022-12-04T16:33:40.565Z,2.60
2022-12-04T16:36:09.793Z,2.80
2022-12-04T16:38:36.484Z,2.80
2022-12-04T16:41:05.140Z,3.00
2022-12-04T16:43:32.174Z,3.10
2022-12-04T16:46:01.161Z,3.20
2022-12-04T16:48:29.695Z,3.00
2022-12-04T16:50:56.354Z,2.80
2022-12-04T16:53:23.259Z,2.70
2022-12-04T16:55:51.570Z,2.70
2022-12-04T16:58:19.832Z,2.70
2022-12-04T17:00:51.869Z,2.80
2022-12-04T17:03:30.884Z,2.90
2022-12-04T17:05:57.973Z,2.70
2022-12-04T17:08:25.123Z,2.80
2022-12-04T17:10:52.005Z,2.90
2022-12-04T17:13:22.300Z,2.90
2022-12-04T17:15:49.666Z,3.00
2022-12-04T17:18:21.026Z,3.00
2022-12-04T17:20:48.359Z,3.00
2022-12-04T17:23:15.257Z,3.00
2022-12-04T17:25:42.415Z,3.10
2022-12-04T17:28:09.173Z,3.10
2022-12-04T17:30:36.605Z,3.00
2022-12-04T17:33:04.521Z,2.80
2022-12-04T17:35:31.789Z,2.60
2022-12-04T17:38:05.343Z,2.50
2022-12-04T17:40:32.720Z,2.60
2022-12-04T17:42:59.698Z,2.80
2022-12-04T17:45:26.649Z,2.80
2022-12-04T17:47:53.298Z,2.90
2022-12-04T17:50:20.236Z,2.90
2022-12-04T17:52:47.112Z,3.00
2022-12-04T17:55:14.196Z,2.70
2022-12-04T17:57:40.955Z,2.60
2022-12-04T18:00:08.447Z,2.60
2022-12-04T18:02:35.839Z,2.70
2022-12-04T18:05:02.569Z,2.60
2022-12-04T18:07:30.924Z,2.60
2022-12-04T18:09:57.932Z,2.80
2022-12-04T18:12:24.815Z,2.60
2022-12-04T18:14:51.480Z,2.70
2022-12-04T18:17:20.902Z,2.60
2022-12-04T18:19:47.980Z,2.60
2022-12-04T18:22:14.664Z,2.70
2022-12-04T18:24:41.444Z,2.80
2022-12-04T18:27:08.306Z,2.90
2022-12-04T18:29:35.083Z,2.80
2022-12-04T18:32:01.852Z,2.70
2022-12-04T18:34:28.594Z,2.50
2022-12-04T18:36:55.540Z,2.30
2022-12-04T18:39:24.838Z,2.10
2022-12-04T18:41:56.035Z,2.00
2022-12-04T18:44:23.310Z,2.00
2022-12-04T18:46:50.247Z,2.00
2022-12-04T18:49:17.070Z,2.00
2022-12-04T18:51:49.562Z,1.90
2022-12-04T18:54:22.957Z,1.90
2022-12-04T18:56:50.476Z,2.20
2022-12-04T18:59:23.043Z,2.10
2022-12-04T19:01:50.467Z,2.30
2022-12-04T19:04:19.337Z,2.50
2022-12-04T19:06:51.678Z,2.60
2022-12-04T19:09:35.391Z,2.80
2022-12-04T19:12:08.900Z,2.80
2022-12-04T19:14:35.741Z,2.80
2022-12-04T19:17:02.438Z,2.90
2022-12-04T19:19:31.770Z,2.80
2022-12-04T19:21:59.259Z,2.80
2022-12-04T19:24:25.992Z,3.00
2022-12-04T19:26:54.271Z,3.10
2022-12-04T19:29:21.033Z,3.10
2022-12-04T19:31:47.898Z,3.10
2022-12-04T19:34:14.661Z,3.20
2022-12-04T19:36:42.617Z,2.90
2022-12-04T19:39:10.119Z,2.70
2022-12-04T19:41:41.273Z,2.20
2022-12-04T19:44:40.075Z,2.10
2022-12-04T19:46:56.485Z,2.10
2022-12-04T19:49:23.164Z,2.10
2022-12-04T19:51:49.986Z,2.00
2022-12-04T19:54:17.154Z,2.30
2022-12-04T19:56:46.313Z,2.40
2022-12-04T19:59:13.155Z,2.40
2022-12-04T20:01:39.917Z,2.70
2022-12-04T20:04:09.061Z,2.60
2022-12-04T20:06:38.963Z,2.70
2022-12-04T20:09:08.782Z,2.70
2022-12-04T20:11:37.039Z,2.80
2022-12-04T20:14:04.664Z,2.70
2022-12-04T20:16:33.188Z,2.70
2022-12-04T20:19:02.209Z,2.70
2022-12-04T20:21:30.768Z,2.50
2022-12-04T20:24:00.200Z,2.60
2022-12-04T20:26:30.437Z,2.70
2022-12-04T20:28:59.535Z,2.80
2022-12-04T20:31:29.553Z,2.80
2022-12-04T20:33:58.788Z,2.80
2022-12-04T20:36:28.026Z,2.60
2022-12-04T20:38:59.954Z,2.60
2022-12-04T20:41:29.362Z,2.60
2022-12-04T20:44:00.130Z,2.60
2022-12-04T20:46:32.793Z,2.60
2022-12-04T20:49:01.627Z,2.60
2022-12-04T20:51:31.123Z,2.60
2022-12-04T20:53:59.382Z,2.50
2022-12-04T20:56:35.022Z,2.50
2022-12-04T20:59:08.097Z,2.50
2022-12-04T21:01:35.743Z,2.60
2022-12-04T21:04:03.127Z,2.60
2022-12-04T21:06:34.813Z,2.50
2022-12-04T21:09:05.878Z,2.50
2022-12-04T21:11:41.405Z,2.20
2022-12-04T21:14:31.043Z,2.10
2022-12-04T21:16:58.266Z,2.20
2022-12-04T21:19:25.409Z,2.30
2022-12-04T21:21:52.829Z,2.30
2022-12-04T21:24:21.624Z,2.40
2022-12-04T21:26:48.295Z,2.40
2022-12-04T21:29:17.969Z,2.40
2022-12-04T21:31:45.001Z,2.40
2022-12-04T21:34:14.524Z,2.10
2022-12-04T21:36:41.732Z,2.20
2022-12-04T21:39:09.016Z,2.40
2022-12-04T21:41:54.344Z,2.40
2022-12-04T21:44:21.838Z,2.30
2022-12-04T21:46:49.425Z,2.40
2022-12-04T21:49:17.634Z,2.40
2022-12-04T21:52:00.022Z,2.40
2022-12-04T21:54:28.090Z,2.50
2022-12-04T21:56:55.037Z,2.50
2022-12-04T21:59:21.951Z,2.40
2022-12-04T22:01:48.881Z,2.30
2022-12-04T22:04:15.717Z,2.30
2022-12-04T22:06:42.585Z,2.30
2022-12-04T22:09:11.407Z,2.30
2022-12-04T22:11:41.346Z,2.30
2022-12-04T22:14:08.612Z,2.20
2022-12-04T22:16:41.340Z,2.10
2022-12-04T22:19:09.221Z,2.20
2022-12-04T22:21:35.976Z,2.20
2022-12-04T22:24:04.268Z,2.20
2022-12-04T22:26:31.615Z,2.30
2022-12-04T22:28:58.734Z,2.30
2022-12-04T22:31:28.144Z,2.20
2022-12-04T22:33:56.441Z,2.00
2022-12-04T22:36:25.813Z,2.10
2022-12-04T22:39:08.797Z,2.10
2022-12-04T22:41:36.417Z,1.90
2022-12-04T22:44:03.587Z,1.80
2022-12-04T22:46:30.392Z,1.80
2022-12-04T22:48:58.850Z,2.00
2022-12-04T22:51:26.159Z,2.10
2022-12-04T22:53:54.951Z,2.10
2022-12-04T22:56:24.436Z,2.00
2022-12-04T22:58:52.177Z,2.10
2022-12-04T23:01:27.600Z,2.20
2022-12-04T23:03:55.452Z,2.20
2022-12-04T23:06:24.254Z,2.10
2022-12-04T23:08:59.437Z,2.00
2022-12-04T23:11:27.195Z,2.10
2022-12-04T23:13:56.570Z,2.10
2022-12-04T23:16:24.165Z,2.20
2022-12-04T23:18:50.964Z,2.30
2022-12-04T23:21:18.736Z,2.30
2022-12-04T23:23:46.933Z,2.10
2022-12-04T23:26:19.847Z,2.20
2022-12-04T23:28:47.169Z,2.20
2022-12-04T23:31:14.562Z,2.20
2022-12-04T23:33:41.789Z,2.20
2022-12-04T23:36:10.573Z,2.20
2022-12-04T23:38:38.748Z,2.20
2022-12-04T23:41:07.028Z,2.00
2022-12-04T23:43:34.624Z,2.00
2022-12-04T23:46:05.770Z,1.90
2022-12-04T23:48:35.773Z,1.90
2022-12-04T23:51:04.757Z,2.00
2022-12-04T23:53:31.492Z,2.10
2022-12-04T23:56:14.198Z,2.10
2022-12-04T23:58:42.141Z,2.10
